sensor_id;sensor_type;location;lat;lon;timestamp;P1;durP1;ratioP1;P2;durP2;ratioP2
52642;SDS011;38531;53.296;6.614;2023-04-24T00:01:17;1.73;;;0.70;;
52642;SDS011;38531;53.296;6.614;2023-04-24T00:03:44;1.17;;;0.60;;
52642;SDS011;38531;53.296;6.614;2023-04-24T00:06:10;1.10;;;0.77;;
52642;SDS011;38531;53.296;6.614;2023-04-24T00:08:35;0.93;;;0.70;;
52642;SDS011;38531;53.296;6.614;2023-04-24T00:11:01;0.98;;;0.80;;
52642;SDS011;38531;53.296;6.614;2023-04-24T00:13:27;0.55;;;0.50;;
52642;SDS011;38531;53.296;6.614;2023-04-24T00:15:53;0.70;;;0.50;;
52642;SDS011;38531;53.296;6.614;2023-04-24T00:18:20;1.02;;;0.50;;
52642;SDS011;38531;53.296;6.614;2023-04-24T00:20:45;0.50;;;0.40;;
52642;SDS011;38531;53.296;6.614;2023-04-24T00:23:11;1.48;;;0.57;;
52642;SDS011;38531;53.296;6.614;2023-04-24T00:25:38;0.50;;;0.50;;
52642;SDS011;38531;53.296;6.614;2023-04-24T00:28:04;0.63;;;0.45;;
52642;SDS011;38531;53.296;6.614;2023-04-24T00:30:29;0.95;;;0.60;;
52642;SDS011;38531;53.296;6.614;2023-04-24T00:32:55;0.90;;;0.60;;
52642;SDS011;38531;53.296;6.614;2023-04-24T00:35:21;0.63;;;0.52;;
52642;SDS011;38531;53.296;6.614;2023-04-24T00:37:48;0.55;;;0.50;;
52642;SDS011;38531;53.296;6.614;2023-04-24T00:40:14;0.50;;;0.50;;
52642;SDS011;38531;53.296;6.614;2023-04-24T00:42:40;0.75;;;0.55;;
52642;SDS011;38531;53.296;6.614;2023-04-24T00:45:06;0.63;;;0.60;;
52642;SDS011;38531;53.296;6.614;2023-04-24T00:47:33;0.70;;;0.50;;
52642;SDS011;38531;53.296;6.614;2023-04-24T00:50:01;0.60;;;0.40;;
52642;SDS011;38531;53.296;6.614;2023-04-24T00:52:28;0.60;;;0.55;;
52642;SDS011;38531;53.296;6.614;2023-04-24T00:54:56;0.57;;;0.40;;
52642;SDS011;38531;53.296;6.614;2023-04-24T00:57:21;0.50;;;0.38;;
52642;SDS011;38531;53.296;6.614;2023-04-24T00:59:48;0.38;;;0.38;;
52642;SDS011;38531;53.296;6.614;2023-04-24T01:02:14;0.40;;;0.40;;
52642;SDS011;38531;53.296;6.614;2023-04-24T01:04:41;0.50;;;0.30;;
52642;SDS011;38531;53.296;6.614;2023-04-24T01:07:07;0.30;;;0.30;;
52642;SDS011;38531;53.296;6.614;2023-04-24T01:09:36;308.08;;;197.38;;
52642;SDS011;38531;53.296;6.614;2023-04-24T01:12:03;1.13;;;0.30;;
52642;SDS011;38531;53.296;6.614;2023-04-24T01:14:30;0.47;;;0.38;;
52642;SDS011;38531;53.296;6.614;2023-04-24T01:16:56;0.30;;;0.30;;
52642;SDS011;38531;53.296;6.614;2023-04-24T01:19:22;0.30;;;0.30;;
52642;SDS011;38531;53.296;6.614;2023-04-24T01:21:48;1.20;;;0.30;;
52642;SDS011;38531;53.296;6.614;2023-04-24T01:24:18;0.20;;;0.20;;
52642;SDS011;38531;53.296;6.614;2023-04-24T01:26:45;0.20;;;0.20;;
52642;SDS011;38531;53.296;6.614;2023-04-24T01:29:11;0.20;;;0.20;;
52642;SDS011;38531;53.296;6.614;2023-04-24T01:31:37;0.20;;;0.20;;
52642;SDS011;38531;53.296;6.614;2023-04-24T01:34:04;0.50;;;0.30;;
52642;SDS011;38531;53.296;6.614;2023-04-24T01:36:31;0.63;;;0.20;;
52642;SDS011;38531;53.296;6.614;2023-04-24T01:38:58;0.20;;;0.20;;
52642;SDS011;38531;53.296;6.614;2023-04-24T01:41:23;0.20;;;0.20;;
52642;SDS011;38531;53.296;6.614;2023-04-24T01:43:50;0.30;;;0.20;;
52642;SDS011;38531;53.296;6.614;2023-04-24T01:46:16;0.20;;;0.20;;
52642;SDS011;38531;53.296;6.614;2023-04-24T01:48:42;839.22;;;496.15;;
52642;SDS011;38531;53.296;6.614;2023-04-24T01:51:09;990.57;;;564.17;;
52642;SDS011;38531;53.296;6.614;2023-04-24T01:53:35;915.87;;;505.63;;
52642;SDS011;38531;53.296;6.614;2023-04-24T01:56:00;925.77;;;437.20;;
52642;SDS011;38531;53.296;6.614;2023-04-24T01:58:27;1007.93;;;521.70;;
52642;SDS011;38531;53.296;6.614;2023-04-24T02:00:55;991.83;;;553.10;;
52642;SDS011;38531;53.296;6.614;2023-04-24T02:03:21;1014.13;;;507.07;;
52642;SDS011;38531;53.296;6.614;2023-04-24T02:05:47;1016.87;;;522.00;;
52642;SDS011;38531;53.296;6.614;2023-04-24T02:08:13;1016.07;;;518.83;;
52642;SDS011;38531;53.296;6.614;2023-04-24T02:10:38;1036.87;;;569.70;;
52642;SDS011;38531;53.296;6.614;2023-04-24T02:13:04;1044.70;;;559.50;;
52642;SDS011;38531;53.296;6.614;2023-04-24T02:15:30;1036.70;;;579.17;;
52642;SDS011;38531;53.296;6.614;2023-04-24T02:17:55;1043.33;;;541.37;;
52642;SDS011;38531;53.296;6.614;2023-04-24T02:20:21;1084.83;;;568.27;;
52642;SDS011;38531;53.296;6.614;2023-04-24T02:22:47;1078.27;;;544.80;;
52642;SDS011;38531;53.296;6.614;2023-04-24T02:25:13;1063.60;;;489.90;;
52642;SDS011;38531;53.296;6.614;2023-04-24T02:27:38;1083.30;;;499.63;;
52642;SDS011;38531;53.296;6.614;2023-04-24T02:30:04;1068.30;;;499.50;;
52642;SDS011;38531;53.296;6.614;2023-04-24T02:32:31;1070.57;;;573.07;;
52642;SDS011;38531;53.296;6.614;2023-04-24T02:34:56;1062.10;;;495.97;;
52642;SDS011;38531;53.296;6.614;2023-04-24T02:37:22;1075.37;;;536.07;;
52642;SDS011;38531;53.296;6.614;2023-04-24T02:39:48;1057.47;;;485.87;;
52642;SDS011;38531;53.296;6.614;2023-04-24T02:42:13;1063.93;;;556.23;;
52642;SDS011;38531;53.296;6.614;2023-04-24T02:44:40;1043.70;;;542.43;;
52642;SDS011;38531;53.296;6.614;2023-04-24T02:47:05;1106.90;;;560.30;;
52642;SDS011;38531;53.296;6.614;2023-04-24T02:49:32;1121.13;;;614.90;;
52642;SDS011;38531;53.296;6.614;2023-04-24T02:51:58;1104.17;;;552.27;;
52642;SDS011;38531;53.296;6.614;2023-04-24T02:54:23;1099.17;;;530.43;;
52642;SDS011;38531;53.296;6.614;2023-04-24T02:56:49;1097.67;;;538.97;;
52642;SDS011;38531;53.296;6.614;2023-04-24T02:59:15;1088.23;;;486.47;;
52642;SDS011;38531;53.296;6.614;2023-04-24T03:01:41;1080.63;;;599.37;;
52642;SDS011;38531;53.296;6.614;2023-04-24T03:04:06;1085.30;;;534.30;;
52642;SDS011;38531;53.296;6.614;2023-04-24T03:06:32;1106.07;;;576.43;;
52642;SDS011;38531;53.296;6.614;2023-04-24T03:09:00;1124.27;;;580.77;;
52642;SDS011;38531;53.296;6.614;2023-04-24T03:11:26;1107.30;;;560.03;;
52642;SDS011;38531;53.296;6.614;2023-04-24T03:13:52;1074.57;;;560.43;;
52642;SDS011;38531;53.296;6.614;2023-04-24T03:16:17;1092.50;;;544.90;;
52642;SDS011;38531;53.296;6.614;2023-04-24T03:18:43;1120.20;;;546.53;;
52642;SDS011;38531;53.296;6.614;2023-04-24T03:21:09;1127.23;;;493.27;;
52642;SDS011;38531;53.296;6.614;2023-04-24T03:23:35;1098.57;;;463.33;;
52642;SDS011;38531;53.296;6.614;2023-04-24T03:26:00;1108.33;;;466.70;;
52642;SDS011;38531;53.296;6.614;2023-04-24T03:28:27;1071.70;;;547.80;;
52642;SDS011;38531;53.296;6.614;2023-04-24T03:30:53;1076.73;;;461.23;;
52642;SDS011;38531;53.296;6.614;2023-04-24T03:33:18;1018.97;;;532.63;;
52642;SDS011;38531;53.296;6.614;2023-04-24T03:35:44;1064.33;;;543.57;;
52642;SDS011;38531;53.296;6.614;2023-04-24T03:38:10;1089.73;;;479.87;;
52642;SDS011;38531;53.296;6.614;2023-04-24T03:40:35;1051.50;;;483.13;;
52642;SDS011;38531;53.296;6.614;2023-04-24T03:43:01;1110.20;;;544.27;;
52642;SDS011;38531;53.296;6.614;2023-04-24T03:45:27;1130.03;;;539.10;;
52642;SDS011;38531;53.296;6.614;2023-04-24T03:47:53;984.33;;;436.73;;
52642;SDS011;38531;53.296;6.614;2023-04-24T03:50:19;1019.90;;;456.03;;
52642;SDS011;38531;53.296;6.614;2023-04-24T03:52:45;1123.70;;;536.07;;
52642;SDS011;38531;53.296;6.614;2023-04-24T03:55:11;1137.77;;;534.63;;
52642;SDS011;38531;53.296;6.614;2023-04-24T03:57:38;1069.23;;;451.10;;
52642;SDS011;38531;53.296;6.614;2023-04-24T04:00:07;1164.67;;;561.77;;
52642;SDS011;38531;53.296;6.614;2023-04-24T04:02:34;1162.60;;;554.47;;
52642;SDS011;38531;53.296;6.614;2023-04-24T04:04:59;1134.10;;;543.43;;
52642;SDS011;38531;53.296;6.614;2023-04-24T04:07:25;1093.03;;;449.70;;
52642;SDS011;38531;53.296;6.614;2023-04-24T04:09:51;1132.17;;;539.57;;
52642;SDS011;38531;53.296;6.614;2023-04-24T04:12:16;1112.53;;;518.73;;
52642;SDS011;38531;53.296;6.614;2023-04-24T04:14:42;1138.40;;;470.03;;
52642;SDS011;38531;53.296;6.614;2023-04-24T04:17:08;1195.37;;;544.07;;
52642;SDS011;38531;53.296;6.614;2023-04-24T04:19:33;1094.27;;;445.90;;
52642;SDS011;38531;53.296;6.614;2023-04-24T04:21:59;1131.87;;;459.27;;
52642;SDS011;38531;53.296;6.614;2023-04-24T04:24:25;1197.97;;;549.30;;
52642;SDS011;38531;53.296;6.614;2023-04-24T04:26:51;1167.97;;;532.67;;
52642;SDS011;38531;53.296;6.614;2023-04-24T04:29:17;1096.90;;;427.27;;
52642;SDS011;38531;53.296;6.614;2023-04-24T04:31:43;1148.73;;;445.47;;
52642;SDS011;38531;53.296;6.614;2023-04-24T04:34:09;1155.10;;;517.20;;
52642;SDS011;38531;53.296;6.614;2023-04-24T04:36:36;1175.83;;;465.03;;
52642;SDS011;38531;53.296;6.614;2023-04-24T04:39:05;1195.13;;;533.53;;
52642;SDS011;38531;53.296;6.614;2023-04-24T04:41:31;1146.30;;;520.33;;
52642;SDS011;38531;53.296;6.614;2023-04-24T04:44:00;1090.80;;;438.33;;
52642;SDS011;38531;53.296;6.614;2023-04-24T04:46:26;1074.43;;;431.10;;
52642;SDS011;38531;53.296;6.614;2023-04-24T04:48:52;1124.50;;;519.30;;
52642;SDS011;38531;53.296;6.614;2023-04-24T04:51:19;1167.80;;;521.93;;
52642;SDS011;38531;53.296;6.614;2023-04-24T04:53:45;1077.33;;;515.17;;
52642;SDS011;38531;53.296;6.614;2023-04-24T04:56:10;1180.37;;;474.00;;
52642;SDS011;38531;53.296;6.614;2023-04-24T04:58:36;1284.43;;;564.53;;
52642;SDS011;38531;53.296;6.614;2023-04-24T05:01:02;1150.27;;;498.40;;
52642;SDS011;38531;53.296;6.614;2023-04-24T05:03:27;1054.40;;;543.77;;
52642;SDS011;38531;53.296;6.614;2023-04-24T05:05:53;1117.13;;;434.90;;
52642;SDS011;38531;53.296;6.614;2023-04-24T05:08:19;1134.70;;;447.80;;
52642;SDS011;38531;53.296;6.614;2023-04-24T05:10:44;1201.10;;;474.43;;
52642;SDS011;38531;53.296;6.614;2023-04-24T05:13:10;1211.57;;;523.90;;
52642;SDS011;38531;53.296;6.614;2023-04-24T05:15:36;1225.23;;;519.17;;
52642;SDS011;38531;53.296;6.614;2023-04-24T05:18:02;1135.73;;;563.03;;
52642;SDS011;38531;53.296;6.614;2023-04-24T05:20:28;1190.40;;;555.43;;
52642;SDS011;38531;53.296;6.614;2023-04-24T05:22:53;1157.30;;;449.93;;
52642;SDS011;38531;53.296;6.614;2023-04-24T05:25:19;1183.23;;;521.90;;
52642;SDS011;38531;53.296;6.614;2023-04-24T05:27:45;1238.23;;;490.60;;
52642;SDS011;38531;53.296;6.614;2023-04-24T05:30:11;1241.17;;;532.93;;
52642;SDS011;38531;53.296;6.614;2023-04-24T05:32:37;1199.53;;;468.90;;
52642;SDS011;38531;53.296;6.614;2023-04-24T05:35:03;1197.07;;;484.43;;
52642;SDS011;38531;53.296;6.614;2023-04-24T05:37:29;1209.27;;;537.13;;
52642;SDS011;38531;53.296;6.614;2023-04-24T05:39:55;1204.17;;;484.50;;
52642;SDS011;38531;53.296;6.614;2023-04-24T05:42:20;1226.67;;;522.80;;
52642;SDS011;38531;53.296;6.614;2023-04-24T05:44:46;1242.53;;;474.53;;
52642;SDS011;38531;53.296;6.614;2023-04-24T05:47:12;1207.80;;;481.63;;
52642;SDS011;38531;53.296;6.614;2023-04-24T05:49:37;1246.73;;;519.13;;
52642;SDS011;38531;53.296;6.614;2023-04-24T05:52:03;1279.47;;;522.23;;
52642;SDS011;38531;53.296;6.614;2023-04-24T05:54:30;1276.03;;;545.23;;
52642;SDS011;38531;53.296;6.614;2023-04-24T05:56:56;1200.33;;;572.57;;
52642;SDS011;38531;53.296;6.614;2023-04-24T05:59:21;1179.83;;;457.70;;
52642;SDS011;38531;53.296;6.614;2023-04-24T06:01:47;1185.43;;;532.87;;
52642;SDS011;38531;53.296;6.614;2023-04-24T06:04:13;1175.63;;;496.70;;
52642;SDS011;38531;53.296;6.614;2023-04-24T06:06:39;1264.17;;;670.70;;
52642;SDS011;38531;53.296;6.614;2023-04-24T06:09:05;1244.53;;;547.27;;
52642;SDS011;38531;53.296;6.614;2023-04-24T06:11:31;1337.47;;;601.53;;
52642;SDS011;38531;53.296;6.614;2023-04-24T06:13:57;1343.00;;;548.20;;
52642;SDS011;38531;53.296;6.614;2023-04-24T06:16:23;1289.50;;;499.87;;
52642;SDS011;38531;53.296;6.614;2023-04-24T06:18:49;1295.97;;;562.23;;
52642;SDS011;38531;53.296;6.614;2023-04-24T06:21:15;1364.33;;;557.10;;
52642;SDS011;38531;53.296;6.614;2023-04-24T06:23:41;1281.43;;;509.33;;
52642;SDS011;38531;53.296;6.614;2023-04-24T06:26:07;1240.87;;;549.20;;
52642;SDS011;38531;53.296;6.614;2023-04-24T06:28:33;1258.03;;;538.23;;
52642;SDS011;38531;53.296;6.614;2023-04-24T06:30:58;1251.20;;;494.27;;
52642;SDS011;38531;53.296;6.614;2023-04-24T06:33:24;1268.90;;;506.97;;
52642;SDS011;38531;53.296;6.614;2023-04-24T06:35:50;1279.80;;;579.57;;
52642;SDS011;38531;53.296;6.614;2023-04-24T06:38:15;1266.07;;;513.70;;
52642;SDS011;38531;53.296;6.614;2023-04-24T06:40:41;1247.70;;;502.00;;
52642;SDS011;38531;53.296;6.614;2023-04-24T06:43:07;1249.53;;;520.13;;
52642;SDS011;38531;53.296;6.614;2023-04-24T06:45:33;1340.97;;;533.37;;
52642;SDS011;38531;53.296;6.614;2023-04-24T06:47:59;1263.43;;;505.03;;
52642;SDS011;38531;53.296;6.614;2023-04-24T06:50:24;1274.80;;;496.17;;
52642;SDS011;38531;53.296;6.614;2023-04-24T06:52:50;1290.00;;;532.47;;
52642;SDS011;38531;53.296;6.614;2023-04-24T06:55:16;1302.90;;;532.57;;
52642;SDS011;38531;53.296;6.614;2023-04-24T06:57:42;1274.80;;;492.30;;
52642;SDS011;38531;53.296;6.614;2023-04-24T07:00:09;1356.63;;;531.67;;
52642;SDS011;38531;53.296;6.614;2023-04-24T07:02:36;1289.93;;;531.83;;
52642;SDS011;38531;53.296;6.614;2023-04-24T07:05:02;1287.37;;;561.00;;
52642;SDS011;38531;53.296;6.614;2023-04-24T07:07:29;1247.93;;;529.57;;
52642;SDS011;38531;53.296;6.614;2023-04-24T07:09:55;1263.17;;;529.60;;
52642;SDS011;38531;53.296;6.614;2023-04-24T07:12:21;1288.10;;;529.60;;
52642;SDS011;38531;53.296;6.614;2023-04-24T07:14:47;1272.27;;;580.20;;
52642;SDS011;38531;53.296;6.614;2023-04-24T07:17:13;1258.53;;;454.20;;
52642;SDS011;38531;53.296;6.614;2023-04-24T07:19:39;1314.93;;;524.57;;
52642;SDS011;38531;53.296;6.614;2023-04-24T07:22:05;1256.97;;;548.40;;
52642;SDS011;38531;53.296;6.614;2023-04-24T07:24:31;1232.00;;;537.70;;
52642;SDS011;38531;53.296;6.614;2023-04-24T07:26:57;1291.83;;;536.40;;
52642;SDS011;38531;53.296;6.614;2023-04-24T07:29:23;1319.23;;;515.93;;
52642;SDS011;38531;53.296;6.614;2023-04-24T07:31:49;1311.87;;;520.67;;
52642;SDS011;38531;53.296;6.614;2023-04-24T07:34:15;1244.57;;;502.50;;
52642;SDS011;38531;53.296;6.614;2023-04-24T07:36:41;1323.97;;;520.90;;
52642;SDS011;38531;53.296;6.614;2023-04-24T07:39:06;1304.40;;;549.63;;
52642;SDS011;38531;53.296;6.614;2023-04-24T07:41:33;1302.77;;;477.20;;
52642;SDS011;38531;53.296;6.614;2023-04-24T07:43:59;1279.70;;;476.13;;
52642;SDS011;38531;53.296;6.614;2023-04-24T07:46:24;1267.10;;;532.80;;
52642;SDS011;38531;53.296;6.614;2023-04-24T07:48:51;1284.37;;;480.07;;
52642;SDS011;38531;53.296;6.614;2023-04-24T07:51:17;1269.10;;;459.17;;
52642;SDS011;38531;53.296;6.614;2023-04-24T07:53:43;1238.33;;;522.10;;
52642;SDS011;38531;53.296;6.614;2023-04-24T07:56:08;1282.77;;;485.40;;
52642;SDS011;38531;53.296;6.614;2023-04-24T07:58:34;1274.40;;;485.27;;
52642;SDS011;38531;53.296;6.614;2023-04-24T08:01:00;1377.13;;;529.10;;
52642;SDS011;38531;53.296;6.614;2023-04-24T08:03:26;1362.50;;;520.47;;
52642;SDS011;38531;53.296;6.614;2023-04-24T08:05:51;1381.03;;;529.43;;
52642;SDS011;38531;53.296;6.614;2023-04-24T08:08:18;1320.70;;;481.83;;
52642;SDS011;38531;53.296;6.614;2023-04-24T08:10:46;1291.10;;;465.20;;
52642;SDS011;38531;53.296;6.614;2023-04-24T08:13:11;1271.77;;;480.47;;
52642;SDS011;38531;53.296;6.614;2023-04-24T08:15:37;1323.00;;;531.43;;
52642;SDS011;38531;53.296;6.614;2023-04-24T08:18:03;1298.03;;;477.20;;
52642;SDS011;38531;53.296;6.614;2023-04-24T08:20:29;1294.27;;;477.87;;
52642;SDS011;38531;53.296;6.614;2023-04-24T08:22:54;1391.73;;;533.37;;
52642;SDS011;38531;53.296;6.614;2023-04-24T08:25:21;1322.10;;;477.07;;
52642;SDS011;38531;53.296;6.614;2023-04-24T08:27:48;1331.27;;;485.47;;
52642;SDS011;38531;53.296;6.614;2023-04-24T08:30:14;1359.50;;;523.73;;
52642;SDS011;38531;53.296;6.614;2023-04-24T08:32:40;1376.57;;;530.10;;
52642;SDS011;38531;53.296;6.614;2023-04-24T08:35:06;1302.70;;;518.93;;
52642;SDS011;38531;53.296;6.614;2023-04-24T08:37:34;1263.23;;;447.53;;
52642;SDS011;38531;53.296;6.614;2023-04-24T08:40:00;1277.03;;;467.77;;
52642;SDS011;38531;53.296;6.614;2023-04-24T08:42:30;1263.73;;;443.63;;
52642;SDS011;38531;53.296;6.614;2023-04-24T08:44:58;1257.50;;;474.40;;
52642;SDS011;38531;53.296;6.614;2023-04-24T08:47:24;1365.33;;;524.63;;
52642;SDS011;38531;53.296;6.614;2023-04-24T08:49:51;1304.33;;;477.50;;
52642;SDS011;38531;53.296;6.614;2023-04-24T08:52:18;1355.37;;;529.00;;
52642;SDS011;38531;53.296;6.614;2023-04-24T08:54:46;1373.07;;;520.63;;
52642;SDS011;38531;53.296;6.614;2023-04-24T08:57:13;1356.20;;;531.97;;
52642;SDS011;38531;53.296;6.614;2023-04-24T08:59:40;1373.50;;;526.30;;
52642;SDS011;38531;53.296;6.614;2023-04-24T09:02:08;1308.43;;;466.13;;
52642;SDS011;38531;53.296;6.614;2023-04-24T09:04:35;1375.33;;;521.13;;
52642;SDS011;38531;53.296;6.614;2023-04-24T09:07:02;1316.43;;;481.97;;
52642;SDS011;38531;53.296;6.614;2023-04-24T09:09:30;1324.73;;;464.27;;
52642;SDS011;38531;53.296;6.614;2023-04-24T09:11:57;1384.80;;;525.07;;
52642;SDS011;38531;53.296;6.614;2023-04-24T09:14:23;1373.13;;;517.90;;
52642;SDS011;38531;53.296;6.614;2023-04-24T09:16:50;1392.33;;;525.20;;
52642;SDS011;38531;53.296;6.614;2023-04-24T09:19:16;1410.07;;;519.13;;
52642;SDS011;38531;53.296;6.614;2023-04-24T09:21:41;1353.57;;;476.20;;
52642;SDS011;38531;53.296;6.614;2023-04-24T09:24:18;1346.47;;;473.80;;
52642;SDS011;38531;53.296;6.614;2023-04-24T09:26:47;1352.33;;;480.70;;
52642;SDS011;38531;53.296;6.614;2023-04-24T09:29:15;1336.93;;;503.00;;
52642;SDS011;38531;53.296;6.614;2023-04-24T09:31:42;1387.73;;;522.80;;
52642;SDS011;38531;53.296;6.614;2023-04-24T09:34:08;1303.43;;;478.37;;
52642;SDS011;38531;53.296;6.614;2023-04-24T09:36:34;1337.00;;;520.67;;
52642;SDS011;38531;53.296;6.614;2023-04-24T09:39:08;1338.50;;;517.13;;
52642;SDS011;38531;53.296;6.614;2023-04-24T09:41:44;1341.53;;;515.73;;
52642;SDS011;38531;53.296;6.614;2023-04-24T09:46:48;1388.97;;;516.43;;
52642;SDS011;38531;53.296;6.614;2023-04-24T09:49:30;1338.07;;;458.92;;
52642;SDS011;38531;53.296;6.614;2023-04-24T09:52:05;1316.60;;;442.63;;
52642;SDS011;38531;53.296;6.614;2023-04-24T09:54:35;1332.83;;;506.40;;
52642;SDS011;38531;53.296;6.614;2023-04-24T09:57:03;1335.17;;;438.03;;
52642;SDS011;38531;53.296;6.614;2023-04-24T09:59:35;1298.93;;;406.93;;
52642;SDS011;38531;53.296;6.614;2023-04-24T10:02:18;1269.27;;;404.30;;
52642;SDS011;38531;53.296;6.614;2023-04-24T10:04:55;1244.20;;;398.83;;
52642;SDS011;38531;53.296;6.614;2023-04-24T10:07:27;1401.20;;;502.10;;
52642;SDS011;38531;53.296;6.614;2023-04-24T10:09:53;1366.43;;;428.90;;
52642;SDS011;38531;53.296;6.614;2023-04-24T10:12:19;1364.43;;;444.60;;
52642;SDS011;38531;53.296;6.614;2023-04-24T10:14:46;1422.73;;;510.50;;
52642;SDS011;38531;53.296;6.614;2023-04-24T10:17:12;1383.43;;;506.90;;
52642;SDS011;38531;53.296;6.614;2023-04-24T10:19:39;1441.27;;;508.93;;
52642;SDS011;38531;53.296;6.614;2023-04-24T10:22:06;1390.70;;;508.77;;
52642;SDS011;38531;53.296;6.614;2023-04-24T10:24:33;1325.03;;;503.07;;
52642;SDS011;38531;53.296;6.614;2023-04-24T10:27:01;1313.50;;;505.17;;
52642;SDS011;38531;53.296;6.614;2023-04-24T10:29:28;1359.20;;;512.03;;
52642;SDS011;38531;53.296;6.614;2023-04-24T10:31:56;1243.47;;;411.40;;
52642;SDS011;38531;53.296;6.614;2023-04-24T10:34:22;1232.27;;;576.67;;
52642;SDS011;38531;53.296;6.614;2023-04-24T10:36:51;1279.97;;;506.23;;
52642;SDS011;38531;53.296;6.614;2023-04-24T10:39:24;1002.87;;;404.53;;
52642;SDS011;38531;53.296;6.614;2023-04-24T10:41:53;1047.40;;;402.57;;
52642;SDS011;38531;53.296;6.614;2023-04-24T10:44:24;1162.17;;;428.27;;
52642;SDS011;38531;53.296;6.614;2023-04-24T10:46:59;1108.10;;;515.20;;
52642;SDS011;38531;53.296;6.614;2023-04-24T10:49:29;1168.57;;;522.03;;
52642;SDS011;38531;53.296;6.614;2023-04-24T10:52:00;1120.70;;;480.30;;
52642;SDS011;38531;53.296;6.614;2023-04-24T10:54:40;1070.13;;;420.43;;
52642;SDS011;38531;53.296;6.614;2023-04-24T10:59:46;1033.78;;;520.53;;
52642;SDS011;38531;53.296;6.614;2023-04-24T11:02:16;1063.47;;;485.33;;
52642;SDS011;38531;53.296;6.614;2023-04-24T11:04:42;1031.60;;;513.47;;
52642;SDS011;38531;53.296;6.614;2023-04-24T11:07:09;1096.40;;;410.63;;
52642;SDS011;38531;53.296;6.614;2023-04-24T11:09:38;1191.03;;;458.80;;
52642;SDS011;38531;53.296;6.614;2023-04-24T11:12:10;1147.90;;;582.83;;
52642;SDS011;38531;53.296;6.614;2023-04-24T11:20:02;1367.20;;;543.80;;
52642;SDS011;38531;53.296;6.614;2023-04-24T11:22:32;1272.33;;;532.30;;
52642;SDS011;38531;53.296;6.614;2023-04-24T11:25:00;1223.73;;;562.83;;
52642;SDS011;38531;53.296;6.614;2023-04-24T11:27:38;1225.30;;;566.97;;
52642;SDS011;38531;53.296;6.614;2023-04-24T11:30:05;1340.43;;;483.35;;
52642;SDS011;38531;53.296;6.614;2023-04-24T11:32:38;1130.97;;;541.73;;
52642;SDS011;38531;53.296;6.614;2023-04-24T11:35:15;1110.43;;;452.07;;
52642;SDS011;38531;53.296;6.614;2023-04-24T11:37:43;1309.73;;;562.53;;
52642;SDS011;38531;53.296;6.614;2023-04-24T11:40:14;1134.53;;;525.80;;
52642;SDS011;38531;53.296;6.614;2023-04-24T11:42:42;1008.83;;;524.90;;
52642;SDS011;38531;53.296;6.614;2023-04-24T11:45:09;564.33;;;251.67;;
52642;SDS011;38531;53.296;6.614;2023-04-24T11:47:38;1286.17;;;557.07;;
52642;SDS011;38531;53.296;6.614;2023-04-24T11:50:05;1181.07;;;574.87;;
52642;SDS011;38531;53.296;6.614;2023-04-24T11:52:33;1347.47;;;596.00;;
52642;SDS011;38531;53.296;6.614;2023-04-24T11:55:02;1344.57;;;610.83;;
52642;SDS011;38531;53.296;6.614;2023-04-24T11:57:29;1184.27;;;535.17;;
52642;SDS011;38531;53.296;6.614;2023-04-24T12:00:04;865.57;;;414.70;;
52642;SDS011;38531;53.296;6.614;2023-04-24T12:02:31;1012.30;;;520.53;;
52642;SDS011;38531;53.296;6.614;2023-04-24T12:04:59;1177.60;;;530.63;;
52642;SDS011;38531;53.296;6.614;2023-04-24T12:07:25;1239.90;;;514.27;;
52642;SDS011;38531;53.296;6.614;2023-04-24T12:09:57;1221.87;;;497.27;;
52642;SDS011;38531;53.296;6.614;2023-04-24T12:12:27;1297.63;;;529.53;;
52642;SDS011;38531;53.296;6.614;2023-04-24T12:17:26;1309.77;;;474.07;;
52642;SDS011;38531;53.296;6.614;2023-04-24T12:19:57;1242.40;;;470.67;;
52642;SDS011;38531;53.296;6.614;2023-04-24T12:25:16;1210.87;;;570.43;;
52642;SDS011;38531;53.296;6.614;2023-04-24T12:27:43;1155.00;;;485.17;;
52642;SDS011;38531;53.296;6.614;2023-04-24T12:30:11;1268.97;;;587.77;;
52642;SDS011;38531;53.296;6.614;2023-04-24T12:32:58;1249.53;;;517.53;;
52642;SDS011;38531;53.296;6.614;2023-04-24T12:37:59;1233.50;;;490.67;;
52642;SDS011;38531;53.296;6.614;2023-04-24T12:40:33;1319.00;;;542.90;;
52642;SDS011;38531;53.296;6.614;2023-04-24T12:42:59;1240.40;;;527.93;;
52642;SDS011;38531;53.296;6.614;2023-04-24T12:45:25;1327.10;;;528.67;;
52642;SDS011;38531;53.296;6.614;2023-04-24T12:47:52;1381.77;;;531.20;;
52642;SDS011;38531;53.296;6.614;2023-04-24T12:50:18;1302.50;;;520.23;;
52642;SDS011;38531;53.296;6.614;2023-04-24T12:52:44;1246.27;;;450.70;;
52642;SDS011;38531;53.296;6.614;2023-04-24T12:55:10;1331.73;;;485.53;;
52642;SDS011;38531;53.296;6.614;2023-04-24T12:57:37;1390.07;;;520.80;;
52642;SDS011;38531;53.296;6.614;2023-04-24T13:00:04;1353.07;;;523.20;;
52642;SDS011;38531;53.296;6.614;2023-04-24T13:02:31;1294.00;;;489.37;;
52642;SDS011;38531;53.296;6.614;2023-04-24T13:04:58;979.03;;;396.77;;
52642;SDS011;38531;53.296;6.614;2023-04-24T13:07:25;867.13;;;499.40;;
52642;SDS011;38531;53.296;6.614;2023-04-24T13:09:51;865.03;;;502.67;;
52642;SDS011;38531;53.296;6.614;2023-04-24T13:12:18;798.50;;;489.23;;
52642;SDS011;38531;53.296;6.614;2023-04-24T13:14:44;895.27;;;497.97;;
52642;SDS011;38531;53.296;6.614;2023-04-24T13:17:10;828.40;;;365.73;;
52642;SDS011;38531;53.296;6.614;2023-04-24T13:19:41;1136.80;;;533.40;;
52642;SDS011;38531;53.296;6.614;2023-04-24T13:22:09;1046.90;;;529.33;;
52642;SDS011;38531;53.296;6.614;2023-04-24T13:24:35;1145.63;;;475.33;;
52642;SDS011;38531;53.296;6.614;2023-04-24T13:27:02;1084.80;;;519.13;;
52642;SDS011;38531;53.296;6.614;2023-04-24T13:29:28;1117.77;;;486.97;;
52642;SDS011;38531;53.296;6.614;2023-04-24T13:31:54;1157.70;;;528.33;;
52642;SDS011;38531;53.296;6.614;2023-04-24T13:34:24;1179.53;;;522.93;;
52642;SDS011;38531;53.296;6.614;2023-04-24T13:36:54;1110.43;;;529.27;;
52642;SDS011;38531;53.296;6.614;2023-04-24T13:39:22;1119.77;;;486.47;;
52642;SDS011;38531;53.296;6.614;2023-04-24T13:41:48;1033.23;;;551.03;;
52642;SDS011;38531;53.296;6.614;2023-04-24T13:44:15;1110.77;;;519.03;;
52642;SDS011;38531;53.296;6.614;2023-04-24T13:46:42;1110.00;;;524.43;;
52642;SDS011;38531;53.296;6.614;2023-04-24T13:49:09;1266.97;;;550.97;;
52642;SDS011;38531;53.296;6.614;2023-04-24T13:51:36;1171.43;;;526.47;;
52642;SDS011;38531;53.296;6.614;2023-04-24T13:54:02;1148.23;;;517.00;;
52642;SDS011;38531;53.296;6.614;2023-04-24T13:56:27;1211.20;;;525.07;;
52642;SDS011;38531;53.296;6.614;2023-04-24T13:58:53;1121.10;;;511.27;;
52642;SDS011;38531;53.296;6.614;2023-04-24T14:01:19;1162.40;;;535.03;;
52642;SDS011;38531;53.296;6.614;2023-04-24T14:03:49;1133.07;;;517.03;;
52642;SDS011;38531;53.296;6.614;2023-04-24T14:06:18;1134.53;;;521.33;;
52642;SDS011;38531;53.296;6.614;2023-04-24T14:08:47;1182.30;;;476.90;;
52642;SDS011;38531;53.296;6.614;2023-04-24T14:11:13;1051.60;;;507.57;;